createdAt,value
2022-09-29T00:01:09.050Z,5.93
2022-09-29T00:03:37.694Z,8.10
2022-09-29T00:06:12.388Z,4.95
2022-09-29T00:08:39.361Z,6.72
2022-09-29T00:11:12.845Z,4.72
2022-09-29T00:13:40.157Z,5.78
2022-09-29T00:16:07.275Z,5.65
2022-09-29T00:18:35.390Z,6.45
2022-09-29T00:21:08.080Z,4.93
2022-09-29T00:23:36.514Z,7.63
2022-09-29T00:26:35.122Z,6.95
2022-09-29T00:29:03.789Z,4.47
2022-09-29T00:31:33.943Z,7.13
2022-09-29T00:34:01.245Z,5.18
2022-09-29T00:36:31.184Z,7.65
2022-09-29T00:38:59.710Z,5.63
2022-09-29T00:41:33.860Z,8.05
2022-09-29T00:44:12.767Z,6.15
2022-09-29T00:46:56.539Z,7.22
2022-09-29T00:49:39.283Z,8.15
2022-09-29T00:52:16.652Z,5.40
2022-09-29T00:54:56.723Z,6.80
2022-09-29T00:57:29.289Z,6.13
2022-09-29T01:00:11.074Z,5.50
2022-09-29T01:03:12.834Z,6.68
2022-09-29T01:05:47.938Z,5.18
2022-09-29T01:08:41.567Z,7.03
2022-09-29T01:11:12.058Z,6.78
2022-09-29T01:13:41.513Z,5.82
2022-09-29T01:16:09.293Z,6.97
2022-09-29T01:18:36.969Z,6.38
2022-09-29T01:21:41.931Z,8.43
2022-09-29T01:24:21.208Z,7.63
2022-09-29T01:26:57.570Z,8.45
2022-09-29T01:29:47.365Z,6.18
2022-09-29T01:32:40.628Z,7.07
2022-09-29T01:35:47.425Z,10.75
2022-09-29T01:38:40.458Z,6.95
2022-09-29T01:41:16.546Z,10.15
2022-09-29T01:43:51.278Z,6.35
2022-09-29T01:46:31.775Z,6.95
2022-09-29T01:49:01.174Z,9.15
2022-09-29T01:52:28.758Z,7.20
2022-09-29T01:55:03.888Z,8.65
2022-09-29T01:58:02.586Z,6.37
2022-09-29T02:00:53.376Z,6.03
2022-09-29T02:03:40.501Z,5.95
2022-09-29T02:06:32.436Z,5.80
2022-09-29T02:09:07.568Z,8.65
2022-09-29T02:11:38.428Z,10.00
2022-09-29T02:14:12.722Z,9.18
2022-09-29T02:16:45.924Z,6.82
2022-09-29T02:19:31.052Z,6.90
2022-09-29T02:21:58.592Z,7.93
2022-09-29T02:24:26.094Z,8.95
2022-09-29T02:26:54.535Z,9.85
2022-09-29T02:29:21.809Z,7.55
2022-09-29T02:31:49.355Z,6.85
2022-09-29T02:34:21.790Z,6.60
2022-09-29T02:37:25.572Z,9.02
2022-09-29T02:40:26.120Z,6.63
2022-09-29T02:43:36.587Z,8.60
2022-09-29T02:47:01.386Z,13.27
2022-09-29T02:49:54.394Z,21.70
2022-09-29T02:52:40.481Z,10.35
2022-09-29T02:55:19.472Z,10.45
2022-09-29T02:58:11.476Z,13.02
2022-09-29T03:00:39.808Z,16.70
2022-09-29T03:03:06.754Z,13.90
2022-09-29T03:05:33.993Z,8.77
2022-09-29T03:08:01.153Z,8.82
2022-09-29T03:10:30.355Z,9.52
2022-09-29T03:12:57.506Z,11.32
2022-09-29T03:15:24.487Z,8.40
2022-09-29T03:17:55.097Z,7.07
2022-09-29T03:20:22.443Z,6.40
2022-09-29T03:22:49.599Z,7.95
2022-09-29T03:25:17.028Z,19.65
2022-09-29T03:27:44.057Z,19.13
2022-09-29T03:30:13.335Z,22.25
2022-09-29T03:32:40.379Z,18.20
2022-09-29T03:35:08.379Z,35.72
2022-09-29T03:37:36.113Z,87.00
2022-09-29T03:40:05.868Z,53.80
2022-09-29T03:42:32.836Z,29.50
2022-09-29T03:44:59.823Z,29.13
2022-09-29T03:47:26.977Z,36.17
2022-09-29T03:49:53.976Z,19.05
2022-09-29T03:52:21.045Z,26.70
2022-09-29T03:54:48.001Z,10.05
2022-09-29T03:57:15.135Z,14.40
2022-09-29T03:59:45.361Z,11.85
2022-09-29T04:02:13.852Z,18.45
2022-09-29T04:04:41.278Z,26.35
2022-09-29T04:07:08.409Z,91.95
2022-09-29T04:09:35.356Z,35.22
2022-09-29T04:12:02.281Z,24.33
2022-09-29T04:14:29.404Z,32.38
2022-09-29T04:16:56.340Z,27.65
2022-09-29T04:19:23.287Z,139.15
2022-09-29T04:21:50.388Z,30.20
2022-09-29T04:24:17.728Z,18.85
2022-09-29T04:26:45.008Z,56.75
2022-09-29T04:29:12.198Z,53.20
2022-09-29T04:31:39.413Z,90.18
2022-09-29T04:34:06.365Z,102.07
2022-09-29T04:36:33.471Z,68.47
2022-09-29T04:39:01.101Z,93.00
2022-09-29T04:41:28.634Z,78.38
2022-09-29T04:43:55.562Z,93.63
2022-09-29T04:46:22.663Z,63.53
2022-09-29T04:48:49.796Z,86.68
2022-09-29T04:51:16.855Z,83.25
2022-09-29T04:53:43.918Z,83.82
2022-09-29T04:56:11.628Z,38.90
2022-09-29T04:58:38.652Z,46.75
2022-09-29T05:01:09.107Z,49.00
2022-09-29T05:03:36.252Z,24.75
2022-09-29T05:06:03.584Z,24.25
2022-09-29T05:08:30.596Z,36.38
2022-09-29T05:10:57.874Z,19.45
2022-09-29T05:13:24.988Z,10.48
2022-09-29T05:15:56.802Z,7.15
2022-09-29T05:18:25.144Z,14.43
2022-09-29T05:21:15.934Z,8.27
2022-09-29T05:23:39.810Z,7.53
2022-09-29T05:26:11.477Z,7.72
2022-09-29T05:28:42.923Z,6.63
2022-09-29T05:31:10.656Z,7.10
2022-09-29T05:33:38.297Z,6.40
2022-09-29T05:36:08.271Z,6.82
2022-09-29T05:38:38.962Z,7.55
2022-09-29T05:41:12.100Z,6.97
2022-09-29T05:43:40.271Z,6.70
2022-09-29T05:46:10.050Z,8.55
2022-09-29T05:48:37.752Z,7.57
2022-09-29T05:51:14.539Z,23.13
2022-09-29T05:53:42.426Z,41.42
2022-09-29T05:56:12.791Z,20.90
2022-09-29T05:58:41.444Z,55.35
2022-09-29T06:01:12.820Z,26.30
2022-09-29T06:03:40.645Z,31.13
2022-09-29T06:06:18.088Z,23.48
2022-09-29T06:08:46.089Z,26.80
2022-09-29T06:11:27.372Z,32.28
2022-09-29T06:13:55.315Z,26.77
2022-09-29T06:16:28.237Z,24.35
2022-09-29T06:18:56.344Z,21.42
2022-09-29T06:21:26.104Z,26.95
2022-09-29T06:23:55.844Z,18.95
2022-09-29T06:26:24.895Z,15.55
2022-09-29T06:28:53.445Z,13.40
2022-09-29T06:31:24.235Z,19.20
2022-09-29T06:33:51.659Z,17.08
2022-09-29T06:36:38.413Z,14.40
2022-09-29T06:39:08.789Z,15.20
2022-09-29T06:41:35.852Z,14.07
2022-09-29T06:44:03.609Z,9.82
2022-09-29T06:46:30.956Z,11.20
2022-09-29T06:48:58.246Z,16.10
2022-09-29T06:51:35.247Z,10.40
2022-09-29T06:54:11.541Z,10.75
2022-09-29T06:56:40.019Z,17.90
2022-09-29T06:59:08.143Z,12.27
2022-09-29T07:01:35.377Z,12.30
2022-09-29T07:04:02.790Z,13.32
2022-09-29T07:06:30.787Z,12.65
2022-09-29T07:08:59.206Z,12.48
2022-09-29T07:11:27.736Z,12.57
2022-09-29T07:13:55.305Z,13.25
2022-09-29T07:16:24.297Z,12.57
2022-09-29T07:18:52.595Z,14.70
2022-09-29T07:21:22.144Z,15.15
2022-09-29T07:23:49.458Z,15.35
2022-09-29T07:26:18.025Z,13.75
2022-09-29T07:28:46.363Z,16.45
2022-09-29T07:31:17.597Z,13.75
2022-09-29T07:33:46.060Z,13.38
2022-09-29T07:36:14.769Z,14.23
2022-09-29T07:38:42.167Z,13.73
2022-09-29T07:41:11.706Z,15.43
2022-09-29T07:43:39.814Z,13.38
2022-09-29T07:46:08.126Z,13.10
2022-09-29T07:48:37.038Z,13.20
2022-09-29T07:51:13.937Z,13.55
2022-09-29T07:53:41.750Z,12.52
2022-09-29T07:56:14.263Z,13.18
2022-09-29T07:58:42.509Z,12.07
2022-09-29T08:01:12.968Z,12.68
2022-09-29T08:03:43.646Z,13.43
2022-09-29T08:06:11.386Z,11.98
2022-09-29T08:08:40.562Z,12.15
2022-09-29T08:11:19.953Z,12.32
2022-09-29T08:13:53.340Z,13.35
2022-09-29T08:16:21.109Z,13.93
2022-09-29T08:18:48.592Z,12.13
2022-09-29T08:21:15.851Z,12.38
2022-09-29T08:23:43.808Z,13.40
2022-09-29T08:26:15.174Z,12.05
2022-09-29T08:28:43.949Z,12.90
2022-09-29T08:31:20.291Z,12.10
2022-09-29T08:33:51.986Z,13.05
2022-09-29T08:36:20.500Z,11.38
2022-09-29T08:38:51.023Z,10.82
2022-09-29T08:41:39.249Z,10.80
2022-09-29T08:44:38.990Z,11.63
2022-09-29T08:47:18.890Z,11.48
2022-09-29T08:49:55.272Z,11.70
2022-09-29T08:52:28.175Z,10.65
2022-09-29T08:55:21.466Z,11.13
2022-09-29T08:57:57.989Z,13.95
2022-09-29T09:00:41.805Z,12.23
2022-09-29T09:03:38.673Z,10.38
2022-09-29T09:06:30.459Z,9.90
2022-09-29T09:09:22.644Z,10.70
2022-09-29T09:12:24.917Z,13.15
2022-09-29T09:15:15.131Z,11.00
2022-09-29T09:18:22.555Z,13.32
2022-09-29T09:24:00.048Z,10.45
2022-09-29T09:29:33.868Z,10.88
2022-09-29T09:32:10.072Z,10.43
2022-09-29T09:34:58.904Z,9.05
2022-09-29T09:37:35.073Z,9.50
2022-09-29T09:40:25.437Z,8.45
2022-09-29T09:43:30.893Z,9.93
2022-09-29T09:46:23.974Z,8.57
2022-09-29T09:49:02.731Z,10.40
2022-09-29T09:51:54.736Z,7.25
2022-09-29T09:54:29.644Z,6.88
2022-09-29T09:57:08.999Z,7.88
2022-09-29T09:59:36.349Z,7.18
2022-09-29T10:02:03.554Z,8.52
2022-09-29T10:04:31.161Z,7.50
2022-09-29T10:06:58.995Z,9.13
2022-09-29T10:09:26.235Z,6.40
2022-09-29T10:11:53.297Z,8.20
2022-09-29T10:14:26.743Z,7.03
2022-09-29T10:17:07.240Z,7.43
2022-09-29T10:20:02.041Z,8.10
2022-09-29T10:22:30.573Z,6.38
2022-09-29T10:25:19.832Z,7.15
2022-09-29T10:27:53.618Z,6.55
2022-09-29T10:30:34.750Z,6.13
2022-09-29T10:33:07.968Z,6.82
2022-09-29T10:35:40.968Z,5.88
2022-09-29T10:38:24.431Z,6.55
2022-09-29T10:41:13.853Z,6.97
2022-09-29T10:43:43.983Z,8.82
2022-09-29T10:46:48.284Z,6.15
2022-09-29T10:49:24.995Z,23.65
2022-09-29T10:52:03.801Z,7.90
2022-09-29T10:54:36.148Z,6.55
2022-09-29T10:57:15.542Z,6.90
2022-09-29T10:59:51.151Z,7.57
2022-09-29T11:02:39.863Z,6.32
2022-09-29T11:05:20.330Z,7.38
2022-09-29T11:07:50.867Z,5.97
2022-09-29T11:10:47.580Z,6.13
2022-09-29T11:13:20.382Z,6.05
2022-09-29T11:15:47.385Z,6.32
2022-09-29T11:18:29.467Z,6.22
2022-09-29T11:21:31.575Z,5.28
2022-09-29T11:24:31.817Z,5.95
2022-09-29T11:27:36.736Z,6.05
2022-09-29T11:30:17.429Z,4.95
2022-09-29T11:33:27.198Z,5.60
2022-09-29T11:36:13.772Z,4.47
2022-09-29T11:39:11.984Z,3.75
2022-09-29T11:41:47.514Z,3.45
2022-09-29T11:44:45.531Z,2.88
2022-09-29T11:47:50.228Z,2.33
2022-09-29T11:50:39.150Z,3.05
2022-09-29T11:53:12.560Z,2.75
2022-09-29T11:56:10.486Z,2.85
2022-09-29T11:59:09.182Z,3.17
2022-09-29T12:02:26.418Z,2.55
2022-09-29T12:05:24.530Z,2.95
2022-09-29T12:08:22.896Z,3.05
2022-09-29T12:11:23.807Z,1.42
2022-09-29T12:14:11.903Z,6.55
2022-09-29T12:16:51.407Z,2.15
2022-09-29T12:19:23.632Z,2.70
2022-09-29T12:21:54.148Z,3.50
2022-09-29T12:24:37.513Z,2.80
2022-09-29T12:27:33.859Z,3.78
2022-09-29T12:30:30.768Z,2.60
2022-09-29T12:33:29.892Z,3.05
2022-09-29T12:36:48.860Z,3.70
2022-09-29T12:39:37.674Z,4.63
2022-09-29T12:42:33.553Z,3.97
2022-09-29T12:45:22.009Z,3.10
2022-09-29T12:48:37.130Z,2.53
2022-09-29T12:51:38.381Z,2.88
2022-09-29T12:54:31.041Z,2.55
2022-09-29T12:57:10.783Z,3.00
2022-09-29T13:00:02.910Z,1.80
2022-09-29T13:02:54.104Z,2.53
2022-09-29T13:05:45.075Z,3.92
2022-09-29T13:08:40.227Z,2.15
2022-09-29T13:11:37.658Z,3.90
2022-09-29T13:14:45.237Z,2.22
2022-09-29T13:17:30.338Z,2.88
2022-09-29T13:20:31.630Z,3.00
2022-09-29T13:23:18.012Z,2.65
2022-09-29T13:28:54.394Z,3.58
2022-09-29T13:31:32.574Z,2.92
2022-09-29T13:34:03.311Z,2.97
2022-09-29T13:36:40.344Z,5.15
2022-09-29T13:39:21.621Z,3.97
2022-09-29T13:41:48.720Z,2.55
2022-09-29T13:44:18.497Z,3.40
2022-09-29T13:46:45.641Z,3.65
2022-09-29T13:49:12.515Z,2.30
2022-09-29T13:51:50.467Z,2.53
2022-09-29T13:54:24.778Z,2.00
2022-09-29T13:57:25.328Z,2.65
2022-09-29T13:59:56.341Z,2.53
2022-09-29T14:02:47.869Z,2.50
2022-09-29T14:05:24.000Z,2.75
2022-09-29T14:10:37.656Z,3.15
2022-09-29T14:16:50.271Z,2.00
2022-09-29T14:19:40.124Z,1.67
2022-09-29T14:22:34.832Z,1.70
2022-09-29T14:25:11.118Z,2.70
2022-09-29T14:27:50.602Z,2.28
2022-09-29T14:30:51.233Z,1.92
2022-09-29T14:33:25.053Z,3.08
2022-09-29T14:36:01.077Z,3.70
2022-09-29T14:38:43.992Z,3.50
2022-09-29T14:41:11.011Z,4.18
2022-09-29T14:43:53.263Z,2.33
2022-09-29T14:47:06.701Z,2.63
2022-09-29T14:50:12.889Z,2.08
2022-09-29T14:52:58.470Z,2.17
2022-09-29T14:56:01.880Z,1.90
2022-09-29T14:59:09.020Z,2.55
2022-09-29T15:01:41.121Z,3.85
2022-09-29T15:04:17.719Z,2.45
2022-09-29T15:06:52.199Z,3.08
2022-09-29T15:09:26.813Z,2.30
2022-09-29T15:12:02.355Z,2.47
2022-09-29T15:14:36.914Z,2.35
2022-09-29T15:17:55.811Z,2.30
2022-09-29T15:21:06.170Z,4.85
2022-09-29T15:24:49.161Z,4.43
2022-09-29T15:27:17.063Z,4.30
2022-09-29T15:29:56.267Z,3.03
2022-09-29T15:32:32.111Z,2.45
2022-09-29T15:35:06.400Z,3.35
2022-09-29T15:38:17.324Z,3.28
2022-09-29T15:40:46.033Z,3.90
2022-09-29T15:43:28.419Z,2.47
2022-09-29T15:46:02.938Z,4.22
2022-09-29T15:48:31.472Z,4.25
2022-09-29T15:50:59.152Z,3.10
2022-09-29T15:53:27.704Z,3.75
2022-09-29T15:55:55.703Z,3.15
2022-09-29T15:58:25.836Z,3.25
2022-09-29T16:01:07.276Z,3.47
2022-09-29T16:03:46.589Z,2.83
2022-09-29T16:06:33.047Z,2.80
2022-09-29T16:11:41.776Z,5.43
2022-09-29T16:14:23.161Z,3.28
2022-09-29T16:16:57.381Z,3.47
2022-09-29T16:19:31.969Z,3.22
2022-09-29T16:22:03.083Z,2.60
2022-09-29T16:24:36.057Z,2.33
2022-09-29T16:27:03.429Z,2.30
2022-09-29T16:29:37.532Z,4.03
2022-09-29T16:32:32.747Z,2.65
2022-09-29T16:35:53.934Z,3.80
2022-09-29T16:38:51.543Z,3.50
2022-09-29T16:41:34.158Z,4.40
2022-09-29T16:44:17.434Z,3.85
2022-09-29T16:46:53.568Z,3.83
2022-09-29T16:49:30.059Z,2.88
2022-09-29T16:52:16.030Z,3.72
2022-09-29T16:54:45.846Z,3.65
2022-09-29T16:57:33.051Z,3.72
2022-09-29T17:00:06.342Z,3.47
2022-09-29T17:02:33.567Z,3.40
2022-09-29T17:05:04.204Z,3.25
2022-09-29T17:07:31.852Z,4.65
2022-09-29T17:10:00.792Z,2.50
2022-09-29T17:12:30.122Z,3.47
2022-09-29T17:14:57.703Z,3.05
2022-09-29T17:17:27.481Z,3.45
2022-09-29T17:19:56.503Z,2.75
2022-09-29T17:22:29.305Z,4.95
2022-09-29T17:24:58.012Z,5.35
2022-09-29T17:27:45.568Z,3.05
2022-09-29T17:30:18.574Z,4.75
2022-09-29T17:32:46.920Z,3.42
2022-09-29T17:35:15.828Z,2.92
2022-09-29T17:37:46.642Z,4.75
2022-09-29T17:40:25.956Z,4.13
2022-09-29T17:42:53.100Z,6.18
2022-09-29T17:45:21.366Z,4.85
2022-09-29T17:47:49.795Z,4.93
2022-09-29T17:50:30.220Z,3.95
2022-09-29T17:52:59.530Z,3.67
2022-09-29T17:55:27.672Z,3.97
2022-09-29T17:57:55.092Z,4.40
2022-09-29T18:00:26.367Z,4.72
2022-09-29T18:02:57.465Z,4.10
2022-09-29T18:05:26.526Z,6.28
2022-09-29T18:07:56.701Z,4.32
2022-09-29T18:10:36.166Z,4.53
2022-09-29T18:13:04.053Z,5.18
2022-09-29T18:15:31.190Z,4.35
2022-09-29T18:18:04.570Z,4.20
2022-09-29T18:20:34.194Z,3.92
2022-09-29T18:23:01.147Z,4.03
2022-09-29T18:25:30.760Z,3.60
2022-09-29T18:27:58.616Z,6.60
2022-09-29T18:30:39.886Z,5.50
2022-09-29T18:33:13.260Z,5.00
2022-09-29T18:35:43.109Z,4.75
2022-09-29T18:38:11.378Z,7.30
2022-09-29T18:40:40.098Z,5.65
2022-09-29T18:43:07.828Z,6.30
2022-09-29T18:45:38.011Z,6.80
2022-09-29T18:48:07.799Z,7.15
2022-09-29T18:50:42.839Z,6.88
2022-09-29T18:53:12.636Z,8.05
2022-09-29T18:55:43.569Z,8.90
2022-09-29T18:58:18.174Z,9.55
2022-09-29T19:00:50.158Z,7.20
2022-09-29T19:03:19.153Z,7.85
2022-09-29T19:05:47.929Z,8.38
2022-09-29T19:08:16.616Z,6.82
2022-09-29T19:11:04.779Z,6.93
2022-09-29T19:13:31.845Z,7.22
2022-09-29T19:15:59.548Z,6.13
2022-09-29T19:18:27.278Z,9.00
2022-09-29T19:20:58.383Z,6.75
2022-09-29T19:23:27.169Z,7.03
2022-09-29T19:25:58.430Z,6.95
2022-09-29T19:28:27.284Z,4.65
2022-09-29T19:30:55.968Z,5.65
2022-09-29T19:33:23.780Z,5.32
2022-09-29T19:35:54.539Z,5.70
2022-09-29T19:38:22.848Z,6.75
2022-09-29T19:40:51.628Z,6.70
2022-09-29T19:43:21.323Z,5.80
2022-09-29T19:45:50.009Z,6.05
2022-09-29T19:48:20.912Z,6.32
2022-09-29T19:51:15.252Z,5.10
2022-09-29T19:53:44.595Z,5.90
2022-09-29T19:56:16.448Z,5.50
2022-09-29T19:58:44.238Z,8.73
2022-09-29T20:01:12.870Z,6.28
2022-09-29T20:03:40.388Z,5.47
2022-09-29T20:06:07.579Z,5.60
2022-09-29T20:08:35.272Z,4.70
2022-09-29T20:11:11.227Z,4.72
2022-09-29T20:16:07.438Z,8.13
2022-09-29T20:18:37.020Z,6.38
2022-09-29T20:21:12.653Z,6.28
2022-09-29T20:23:39.766Z,6.63
2022-09-29T20:26:08.909Z,7.05
2022-09-29T20:28:37.206Z,6.40
2022-09-29T20:31:06.045Z,8.73
2022-09-29T20:33:34.300Z,6.00
2022-09-29T20:36:04.040Z,7.35
2022-09-29T20:38:39.534Z,8.60
2022-09-29T20:41:08.026Z,6.55
2022-09-29T20:43:35.734Z,7.57
2022-09-29T20:46:07.914Z,6.30
2022-09-29T20:48:37.212Z,10.00
2022-09-29T20:51:06.828Z,7.20
2022-09-29T20:53:40.442Z,6.72
2022-09-29T20:56:16.214Z,6.95
2022-09-29T20:58:51.292Z,8.15
2022-09-29T21:01:25.020Z,6.37
2022-09-29T21:03:55.844Z,8.27
2022-09-29T21:06:26.504Z,6.90
2022-09-29T21:08:54.521Z,9.88
2022-09-29T21:11:22.629Z,9.30
2022-09-29T21:13:52.423Z,8.75
2022-09-29T21:16:19.694Z,6.97
2022-09-29T21:18:46.815Z,6.63
2022-09-29T21:21:14.132Z,9.77
2022-09-29T21:23:42.858Z,9.27
2022-09-29T21:26:15.476Z,9.23
2022-09-29T21:28:55.029Z,9.02
2022-09-29T21:31:28.570Z,13.25
2022-09-29T21:34:03.405Z,11.40
2022-09-29T21:36:34.396Z,12.80
2022-09-29T21:39:06.240Z,10.25
2022-09-29T21:41:38.876Z,6.45
2022-09-29T21:44:11.459Z,6.78
2022-09-29T21:46:39.376Z,5.75
2022-09-29T21:49:08.769Z,5.68
2022-09-29T21:51:42.139Z,6.30
2022-09-29T21:54:18.987Z,5.40
2022-09-29T21:56:47.199Z,6.68
2022-09-29T21:59:19.414Z,6.13
2022-09-29T22:01:47.307Z,5.18
2022-09-29T22:04:15.756Z,6.28
2022-09-29T22:06:44.719Z,5.35
2022-09-29T22:09:18.501Z,6.93
2022-09-29T22:11:46.421Z,7.45
2022-09-29T22:14:14.347Z,5.50
2022-09-29T22:16:41.611Z,5.40
2022-09-29T22:19:26.106Z,5.25
2022-09-29T22:21:56.396Z,5.40
2022-09-29T22:24:29.450Z,5.63
2022-09-29T22:26:56.605Z,5.57
2022-09-29T22:29:24.181Z,6.35
2022-09-29T22:31:51.716Z,5.68
2022-09-29T22:34:18.836Z,7.03
2022-09-29T22:36:45.928Z,7.60
2022-09-29T22:39:12.973Z,7.82
2022-09-29T22:41:40.954Z,7.57
2022-09-29T22:44:08.603Z,6.55
2022-09-29T22:46:35.909Z,7.22
2022-09-29T22:49:03.681Z,6.03
2022-09-29T22:51:30.878Z,6.07
2022-09-29T22:53:57.867Z,7.32
2022-09-29T22:56:28.735Z,5.28
2022-09-29T22:59:01.393Z,7.18
2022-09-29T23:01:29.129Z,5.80
2022-09-29T23:03:56.370Z,5.63
2022-09-29T23:06:23.446Z,8.38
2022-09-29T23:08:50.551Z,5.20
2022-09-29T23:11:20.067Z,6.05
2022-09-29T23:13:47.916Z,5.53
2022-09-29T23:16:16.819Z,5.40
2022-09-29T23:18:45.894Z,11.00
2022-09-29T23:21:19.488Z,5.13
2022-09-29T23:23:59.772Z,6.57
2022-09-29T23:26:30.082Z,4.88
2022-09-29T23:28:57.170Z,5.13
2022-09-29T23:31:24.654Z,5.72
2022-09-29T23:33:57.557Z,6.00
2022-09-29T23:36:27.572Z,6.03
2022-09-29T23:39:09.906Z,5.18
2022-09-29T23:42:05.563Z,6.15
2022-09-29T23:44:35.514Z,6.10
2022-09-29T23:47:02.720Z,7.13
2022-09-29T23:49:29.692Z,5.25
2022-09-29T23:52:00.283Z,7.35
2022-09-29T23:54:29.306Z,5.82
2022-09-29T23:56:57.337Z,5.05
2022-09-29T23:59:25.048Z,5.25
